sensor_id;sensor_type;location;lat;lon;timestamp;temperature;humidity
58781;SHT30;45243;51.548;6.990;2022-08-03T00:00:05;17.58;91.55
58781;SHT30;45243;51.548;6.990;2022-08-03T00:02:34;17.55;91.60
58781;SHT30;45243;51.548;6.990;2022-08-03T00:04:59;17.55;91.69
58781;SHT30;45243;51.548;6.990;2022-08-03T00:07:25;17.55;91.71
58781;SHT30;45243;51.548;6.990;2022-08-03T00:09:50;17.55;91.70
58781;SHT30;45243;51.548;6.990;2022-08-03T00:12:15;17.53;91.79
58781;SHT30;45243;51.548;6.990;2022-08-03T00:14:40;17.51;92.03
58781;SHT30;45243;51.548;6.990;2022-08-03T00:17:06;17.50;92.18
58781;SHT30;45243;51.548;6.990;2022-08-03T00:21:59;17.43;92.40
58781;SHT30;45243;51.548;6.990;2022-08-03T00:26:52;17.41;92.57
58781;SHT30;45243;51.548;6.990;2022-08-03T00:29:17;17.37;92.61
58781;SHT30;45243;51.548;6.990;2022-08-03T00:31:42;17.37;92.80
58781;SHT30;45243;51.548;6.990;2022-08-03T00:34:08;17.33;92.68
58781;SHT30;45243;51.548;6.990;2022-08-03T00:36:33;17.31;92.57
58781;SHT30;45243;51.548;6.990;2022-08-03T00:38:58;17.28;92.40
58781;SHT30;45243;51.548;6.990;2022-08-03T00:41:24;17.28;92.67
58781;SHT30;45243;51.548;6.990;2022-08-03T00:43:49;17.26;92.69
58781;SHT30;45243;51.548;6.990;2022-08-03T00:46:14;17.22;92.73
58781;SHT30;45243;51.548;6.990;2022-08-03T00:48:40;17.19;92.81
58781;SHT30;45243;51.548;6.990;2022-08-03T00:51:05;17.20;92.77
58781;SHT30;45243;51.548;6.990;2022-08-03T00:53:30;17.19;92.83
58781;SHT30;45243;51.548;6.990;2022-08-03T00:55:56;17.15;92.88
58781;SHT30;45243;51.548;6.990;2022-08-03T01:00:50;17.10;92.90
58781;SHT30;45243;51.548;6.990;2022-08-03T01:03:15;17.09;93.22
58781;SHT30;45243;51.548;6.990;2022-08-03T01:14:14;17.06;93.29
58781;SHT30;45243;51.548;6.990;2022-08-03T01:16:51;17.03;93.48
58781;SHT30;45243;51.548;6.990;2022-08-03T01:25:19;17.00;93.78
58781;SHT30;45243;51.548;6.990;2022-08-03T01:35:39;16.98;94.04
58781;SHT30;45243;51.548;6.990;2022-08-03T01:38:09;16.94;93.95
58781;SHT30;45243;51.548;6.990;2022-08-03T01:40:42;16.98;94.12
58781;SHT30;45243;51.548;6.990;2022-08-03T01:43:09;16.95;94.16
58781;SHT30;45243;51.548;6.990;2022-08-03T01:45:39;16.92;94.24
58781;SHT30;45243;51.548;6.990;2022-08-03T01:50:32;16.91;94.17
58781;SHT30;45243;51.548;6.990;2022-08-03T01:52:58;16.89;94.11
58781;SHT30;45243;51.548;6.990;2022-08-03T01:55:26;16.85;94.22
58781;SHT30;45243;51.548;6.990;2022-08-03T01:57:54;16.82;94.16
58781;SHT30;45243;51.548;6.990;2022-08-03T02:00:23;16.82;94.18
58781;SHT30;45243;51.548;6.990;2022-08-03T02:02:49;16.79;94.26
58781;SHT30;45243;51.548;6.990;2022-08-03T02:10:19;16.75;94.33
58781;SHT30;45243;51.548;6.990;2022-08-03T02:12:46;16.72;94.33
58781;SHT30;45243;51.548;6.990;2022-08-03T02:15:14;16.72;94.26
58781;SHT30;45243;51.548;6.990;2022-08-03T02:17:41;16.67;94.21
58781;SHT30;45243;51.548;6.990;2022-08-03T02:20:08;16.65;94.27
58781;SHT30;45243;51.548;6.990;2022-08-03T02:22:38;16.62;94.36
58781;SHT30;45243;51.548;6.990;2022-08-03T02:25:06;16.64;94.37
58781;SHT30;45243;51.548;6.990;2022-08-03T02:27:35;16.62;94.49
58781;SHT30;45243;51.548;6.990;2022-08-03T02:30:04;16.62;94.39
58781;SHT30;45243;51.548;6.990;2022-08-03T02:32:36;16.59;94.42
58781;SHT30;45243;51.548;6.990;2022-08-03T02:35:05;16.59;94.41
58781;SHT30;45243;51.548;6.990;2022-08-03T02:40:02;16.55;94.62
58781;SHT30;45243;51.548;6.990;2022-08-03T02:45:00;16.54;94.75
58781;SHT30;45243;51.548;6.990;2022-08-03T02:47:29;16.54;94.84
58781;SHT30;45243;51.548;6.990;2022-08-03T02:49:56;16.52;94.78
58781;SHT30;45243;51.548;6.990;2022-08-03T02:52:24;16.52;94.88
58781;SHT30;45243;51.548;6.990;2022-08-03T02:54:52;16.54;94.97
58781;SHT30;45243;51.548;6.990;2022-08-03T02:57:21;16.51;94.98
58781;SHT30;45243;51.548;6.990;2022-08-03T02:59:49;16.49;94.99
58781;SHT30;45243;51.548;6.990;2022-08-03T03:02:16;16.49;94.98
58781;SHT30;45243;51.548;6.990;2022-08-03T03:04:43;16.48;94.98
58781;SHT30;45243;51.548;6.990;2022-08-03T03:07:11;16.49;94.99
58781;SHT30;45243;51.548;6.990;2022-08-03T03:09:38;16.45;94.99
58781;SHT30;45243;51.548;6.990;2022-08-03T03:12:04;16.45;95.01
58781;SHT30;45243;51.548;6.990;2022-08-03T03:19:27;16.41;95.11
58781;SHT30;45243;51.548;6.990;2022-08-03T03:21:56;16.40;95.20
58781;SHT30;45243;51.548;6.990;2022-08-03T03:24:24;16.38;95.17
58781;SHT30;45243;51.548;6.990;2022-08-03T03:26:51;16.36;95.08
58781;SHT30;45243;51.548;6.990;2022-08-03T03:29:17;16.31;95.22
58781;SHT30;45243;51.548;6.990;2022-08-03T03:31:43;16.27;95.14
58781;SHT30;45243;51.548;6.990;2022-08-03T03:34:08;16.24;95.12
58781;SHT30;45243;51.548;6.990;2022-08-03T03:36:34;16.21;95.00
58781;SHT30;45243;51.548;6.990;2022-08-03T03:38:59;16.20;95.02
58781;SHT30;45243;51.548;6.990;2022-08-03T03:41:25;16.23;94.91
58781;SHT30;45243;51.548;6.990;2022-08-03T03:43:50;16.19;94.91
58781;SHT30;45243;51.548;6.990;2022-08-03T03:46:16;16.16;94.85
58781;SHT30;45243;51.548;6.990;2022-08-03T03:53:57;16.16;94.93
58781;SHT30;45243;51.548;6.990;2022-08-03T03:56:23;16.19;94.95
58781;SHT30;45243;51.548;6.990;2022-08-03T03:58:49;16.16;94.93
58781;SHT30;45243;51.548;6.990;2022-08-03T04:01:14;16.17;94.95
58781;SHT30;45243;51.548;6.990;2022-08-03T04:03:40;16.12;94.97
58781;SHT30;45243;51.548;6.990;2022-08-03T04:06:05;16.10;95.03
58781;SHT30;45243;51.548;6.990;2022-08-03T04:08:49;16.10;95.04
58781;SHT30;45243;51.548;6.990;2022-08-03T04:11:40;16.12;95.12
58781;SHT30;45243;51.548;6.990;2022-08-03T04:14:16;16.14;95.19
58781;SHT30;45243;51.548;6.990;2022-08-03T04:16:49;16.13;95.16
58781;SHT30;45243;51.548;6.990;2022-08-03T04:19:19;16.13;95.28
58781;SHT30;45243;51.548;6.990;2022-08-03T04:22:00;16.14;95.32
58781;SHT30;45243;51.548;6.990;2022-08-03T04:29:24;16.17;95.32
58781;SHT30;45243;51.548;6.990;2022-08-03T04:31:50;16.19;95.27
58781;SHT30;45243;51.548;6.990;2022-08-03T04:34:19;16.20;95.26
58781;SHT30;45243;51.548;6.990;2022-08-03T04:36:47;16.21;95.31
58781;SHT30;45243;51.548;6.990;2022-08-03T04:39:17;16.26;95.33
58781;SHT30;45243;51.548;6.990;2022-08-03T04:41:49;16.27;95.29
58781;SHT30;45243;51.548;6.990;2022-08-03T04:44:18;16.26;95.29
58781;SHT30;45243;51.548;6.990;2022-08-03T04:46:45;16.26;95.35
58781;SHT30;45243;51.548;6.990;2022-08-03T04:49:11;16.27;95.31
58781;SHT30;45243;51.548;6.990;2022-08-03T04:51:37;16.27;95.27
58781;SHT30;45243;51.548;6.990;2022-08-03T04:54:04;16.30;95.44
58781;SHT30;45243;51.548;6.990;2022-08-03T04:56:31;16.36;95.45
58781;SHT30;45243;51.548;6.990;2022-08-03T05:03:53;16.47;95.42
58781;SHT30;45243;51.548;6.990;2022-08-03T05:06:18;16.49;95.45
58781;SHT30;45243;51.548;6.990;2022-08-03T05:08:44;16.49;95.34
58781;SHT30;45243;51.548;6.990;2022-08-03T05:11:09;16.58;95.32
58781;SHT30;45243;51.548;6.990;2022-08-03T05:13:34;16.62;95.39
58781;SHT30;45243;51.548;6.990;2022-08-03T05:16:00;16.68;95.43
58781;SHT30;45243;51.548;6.990;2022-08-03T05:18:25;16.76;95.57
58781;SHT30;45243;51.548;6.990;2022-08-03T05:20:51;16.80;95.48
58781;SHT30;45243;51.548;6.990;2022-08-03T05:23:16;16.86;95.35
58781;SHT30;45243;51.548;6.990;2022-08-03T05:25:41;16.88;95.23
58781;SHT30;45243;51.548;6.990;2022-08-03T05:28:07;16.98;95.39
58781;SHT30;45243;51.548;6.990;2022-08-03T05:30:32;17.05;95.23
58781;SHT30;45243;51.548;6.990;2022-08-03T05:32:57;17.13;95.48
58781;SHT30;45243;51.548;6.990;2022-08-03T05:37:51;17.36;95.54
58781;SHT30;45243;51.548;6.990;2022-08-03T05:42:44;17.54;95.59
58781;SHT30;45243;51.548;6.990;2022-08-03T05:45:09;17.65;95.66
58781;SHT30;45243;51.548;6.990;2022-08-03T05:47:45;17.77;95.68
58781;SHT30;45243;51.548;6.990;2022-08-03T05:50:12;17.88;95.83
58781;SHT30;45243;51.548;6.990;2022-08-03T05:52:38;18.02;95.74
58781;SHT30;45243;51.548;6.990;2022-08-03T05:55:05;18.14;95.59
58781;SHT30;45243;51.548;6.990;2022-08-03T05:57:31;18.30;95.41
58781;SHT30;45243;51.548;6.990;2022-08-03T05:59:57;18.41;95.24
58781;SHT30;45243;51.548;6.990;2022-08-03T06:02:22;18.47;94.69
58781;SHT30;45243;51.548;6.990;2022-08-03T06:04:47;18.60;94.40
58781;SHT30;45243;51.548;6.990;2022-08-03T06:07:13;18.72;93.83
58781;SHT30;45243;51.548;6.990;2022-08-03T06:14:34;19.32;91.70
58781;SHT30;45243;51.548;6.990;2022-08-03T06:16:59;19.45;91.22
58781;SHT30;45243;51.548;6.990;2022-08-03T06:19:25;19.58;90.68
58781;SHT30;45243;51.548;6.990;2022-08-03T06:21:51;19.70;90.04
58781;SHT30;45243;51.548;6.990;2022-08-03T06:24:17;19.86;89.55
58781;SHT30;45243;51.548;6.990;2022-08-03T06:26:42;20.04;88.53
58781;SHT30;45243;51.548;6.990;2022-08-03T06:29:07;20.19;87.96
58781;SHT30;45243;51.548;6.990;2022-08-03T06:31:32;20.36;87.14
58781;SHT30;45243;51.548;6.990;2022-08-03T06:33:58;20.50;86.86
58781;SHT30;45243;51.548;6.990;2022-08-03T06:36:23;20.64;85.94
58781;SHT30;45243;51.548;6.990;2022-08-03T06:38:49;20.83;85.53
58781;SHT30;45243;51.548;6.990;2022-08-03T06:41:15;20.94;84.12
58781;SHT30;45243;51.548;6.990;2022-08-03T06:48:43;21.50;82.13
58781;SHT30;45243;51.548;6.990;2022-08-03T06:51:08;21.50;82.35
58781;SHT30;45243;51.548;6.990;2022-08-03T06:53:34;21.65;82.12
58781;SHT30;45243;51.548;6.990;2022-08-03T06:55:59;21.70;79.61
58781;SHT30;45243;51.548;6.990;2022-08-03T06:58:24;22.03;78.63
58781;SHT30;45243;51.548;6.990;2022-08-03T07:00:50;22.17;79.40
58781;SHT30;45243;51.548;6.990;2022-08-03T07:03:15;22.13;79.06
58781;SHT30;45243;51.548;6.990;2022-08-03T07:05:41;22.18;78.91
58781;SHT30;45243;51.548;6.990;2022-08-03T07:08:07;22.31;78.40
58781;SHT30;45243;51.548;6.990;2022-08-03T07:10:32;22.45;77.70
58781;SHT30;45243;51.548;6.990;2022-08-03T07:12:58;22.58;77.75
58781;SHT30;45243;51.548;6.990;2022-08-03T07:15:23;22.68;76.19
58781;SHT30;45243;51.548;6.990;2022-08-03T07:17:49;22.80;76.33
58781;SHT30;45243;51.548;6.990;2022-08-03T07:24:23;22.99;75.18
58781;SHT30;45243;51.548;6.990;2022-08-03T07:26:49;23.01;75.85
58781;SHT30;45243;51.548;6.990;2022-08-03T07:29:14;23.13;73.90
58781;SHT30;45243;51.548;6.990;2022-08-03T07:31:39;23.28;74.14
58781;SHT30;45243;51.548;6.990;2022-08-03T07:34:06;23.34;73.94
58781;SHT30;45243;51.548;6.990;2022-08-03T07:36:31;23.45;72.22
58781;SHT30;45243;51.548;6.990;2022-08-03T07:38:56;23.62;71.73
58781;SHT30;45243;51.548;6.990;2022-08-03T07:41:22;23.68;72.13
58781;SHT30;45243;51.548;6.990;2022-08-03T07:43:47;23.72;72.75
58781;SHT30;45243;51.548;6.990;2022-08-03T07:46:13;23.88;71.15
58781;SHT30;45243;51.548;6.990;2022-08-03T07:48:38;24.03;70.69
58781;SHT30;45243;51.548;6.990;2022-08-03T07:51:04;24.17;70.82
58781;SHT30;45243;51.548;6.990;2022-08-03T07:53:34;24.25;70.67
58781;SHT30;45243;51.548;6.990;2022-08-03T07:58:29;24.33;70.06
58781;SHT30;45243;51.548;6.990;2022-08-03T08:00:55;24.43;69.13
58781;SHT30;45243;51.548;6.990;2022-08-03T08:03:20;24.52;69.95
58781;SHT30;45243;51.548;6.990;2022-08-03T08:05:48;24.48;70.47
58781;SHT30;45243;51.548;6.990;2022-08-03T08:08:13;24.60;70.12
58781;SHT30;45243;51.548;6.990;2022-08-03T08:10:39;24.61;70.37
58781;SHT30;45243;51.548;6.990;2022-08-03T08:13:04;24.73;67.92
58781;SHT30;45243;51.548;6.990;2022-08-03T08:15:30;24.86;69.29
58781;SHT30;45243;51.548;6.990;2022-08-03T08:17:56;25.03;68.39
58781;SHT30;45243;51.548;6.990;2022-08-03T08:20:25;25.15;66.67
58781;SHT30;45243;51.548;6.990;2022-08-03T08:22:52;25.30;64.79
58781;SHT30;45243;51.548;6.990;2022-08-03T08:25:20;25.31;66.93
58781;SHT30;45243;51.548;6.990;2022-08-03T08:27:46;25.26;67.64
58781;SHT30;45243;51.548;6.990;2022-08-03T08:35:16;25.56;67.26
58781;SHT30;45243;51.548;6.990;2022-08-03T08:37:42;25.56;68.22
58781;SHT30;45243;51.548;6.990;2022-08-03T08:40:08;25.50;66.34
58781;SHT30;45243;51.548;6.990;2022-08-03T08:42:42;25.64;65.03
58781;SHT30;45243;51.548;6.990;2022-08-03T08:45:08;25.82;65.94
58781;SHT30;45243;51.548;6.990;2022-08-03T08:47:37;25.95;64.54
58781;SHT30;45243;51.548;6.990;2022-08-03T08:50:04;25.80;65.67
58781;SHT30;45243;51.548;6.990;2022-08-03T08:52:32;25.85;66.13
58781;SHT30;45243;51.548;6.990;2022-08-03T08:55:00;26.22;63.05
58781;SHT30;45243;51.548;6.990;2022-08-03T08:57:37;26.35;62.45
58781;SHT30;45243;51.548;6.990;2022-08-03T09:00:11;26.47;62.86
58781;SHT30;45243;51.548;6.990;2022-08-03T09:02:48;26.65;60.87
58781;SHT30;45243;51.548;6.990;2022-08-03T09:07:49;26.70;63.28
58781;SHT30;45243;51.548;6.990;2022-08-03T09:10:17;26.73;61.45
58781;SHT30;45243;51.548;6.990;2022-08-03T09:12:47;26.87;61.85
58781;SHT30;45243;51.548;6.990;2022-08-03T09:15:15;27.11;61.73
58781;SHT30;45243;51.548;6.990;2022-08-03T09:17:40;27.12;62.38
58781;SHT30;45243;51.548;6.990;2022-08-03T09:20:05;27.36;61.68
58781;SHT30;45243;51.548;6.990;2022-08-03T09:22:34;27.56;61.30
58781;SHT30;45243;51.548;6.990;2022-08-03T09:25:01;27.65;58.60
58781;SHT30;45243;51.548;6.990;2022-08-03T09:27:28;27.91;58.18
58781;SHT30;45243;51.548;6.990;2022-08-03T09:30:05;28.17;58.90
58781;SHT30;45243;51.548;6.990;2022-08-03T09:32:37;28.31;58.01
58781;SHT30;45243;51.548;6.990;2022-08-03T09:35:03;28.39;57.51
58781;SHT30;45243;51.548;6.990;2022-08-03T09:37:29;28.31;56.13
58781;SHT30;45243;51.548;6.990;2022-08-03T09:42:22;28.01;56.32
58781;SHT30;45243;51.548;6.990;2022-08-03T09:44:49;28.22;56.15
58781;SHT30;45243;51.548;6.990;2022-08-03T09:47:25;28.27;56.35
58781;SHT30;45243;51.548;6.990;2022-08-03T09:50:07;28.45;56.55
58781;SHT30;45243;51.548;6.990;2022-08-03T09:52:33;28.55;55.95
58781;SHT30;45243;51.548;6.990;2022-08-03T09:55:02;28.63;56.11
58781;SHT30;45243;51.548;6.990;2022-08-03T09:57:32;28.76;55.48
58781;SHT30;45243;51.548;6.990;2022-08-03T10:02:53;28.35;57.39
58781;SHT30;45243;51.548;6.990;2022-08-03T10:05:31;28.53;55.71
58781;SHT30;45243;51.548;6.990;2022-08-03T10:07:57;28.69;55.87
58781;SHT30;45243;51.548;6.990;2022-08-03T10:10:22;28.80;55.11
58781;SHT30;45243;51.548;6.990;2022-08-03T10:12:48;28.90;52.71
58781;SHT30;45243;51.548;6.990;2022-08-03T10:15:14;28.96;53.65
58781;SHT30;45243;51.548;6.990;2022-08-03T10:17:40;28.97;52.11
58781;SHT30;45243;51.548;6.990;2022-08-03T10:20:06;28.99;51.24
58781;SHT30;45243;51.548;6.990;2022-08-03T10:22:33;29.08;52.03
58781;SHT30;45243;51.548;6.990;2022-08-03T10:25:02;29.28;51.49
58781;SHT30;45243;51.548;6.990;2022-08-03T10:27:39;29.66;53.29
58781;SHT30;45243;51.548;6.990;2022-08-03T10:30:07;29.88;49.93
58781;SHT30;45243;51.548;6.990;2022-08-03T10:32:41;30.04;49.95
58781;SHT30;45243;51.548;6.990;2022-08-03T10:35:11;30.20;50.25
58781;SHT30;45243;51.548;6.990;2022-08-03T10:37:41;30.38;49.31
58781;SHT30;45243;51.548;6.990;2022-08-03T10:40:11;30.48;49.52
58781;SHT30;45243;51.548;6.990;2022-08-03T10:42:39;30.74;48.08
58781;SHT30;45243;51.548;6.990;2022-08-03T10:45:14;30.83;49.70
58781;SHT30;45243;51.548;6.990;2022-08-03T10:47:44;30.98;48.63
58781;SHT30;45243;51.548;6.990;2022-08-03T10:50:11;30.99;48.65
58781;SHT30;45243;51.548;6.990;2022-08-03T10:52:53;31.26;48.03
58781;SHT30;45243;51.548;6.990;2022-08-03T10:55:32;31.50;45.75
58781;SHT30;45243;51.548;6.990;2022-08-03T11:01:11;31.46;48.28
58781;SHT30;45243;51.548;6.990;2022-08-03T11:06:19;31.68;47.48
58781;SHT30;45243;51.548;6.990;2022-08-03T11:11:34;32.44;47.75
58781;SHT30;45243;51.548;6.990;2022-08-03T11:14:04;32.88;44.61
58781;SHT30;45243;51.548;6.990;2022-08-03T11:16:36;33.28;43.97
58781;SHT30;45243;51.548;6.990;2022-08-03T11:19:11;32.66;43.85
58781;SHT30;45243;51.548;6.990;2022-08-03T11:29:29;32.26;46.56
58781;SHT30;45243;51.548;6.990;2022-08-03T11:31:56;32.25;44.15
58781;SHT30;45243;51.548;6.990;2022-08-03T11:34:22;32.39;43.68
58781;SHT30;45243;51.548;6.990;2022-08-03T11:39:48;32.22;46.35
58781;SHT30;45243;51.548;6.990;2022-08-03T11:44:55;32.13;47.70
58781;SHT30;45243;51.548;6.990;2022-08-03T11:47:24;32.06;46.33
58781;SHT30;45243;51.548;6.990;2022-08-03T11:49:58;32.13;44.75
58781;SHT30;45243;51.548;6.990;2022-08-03T11:52:26;32.06;44.17
58781;SHT30;45243;51.548;6.990;2022-08-03T11:54:57;32.06;44.41
58781;SHT30;45243;51.548;6.990;2022-08-03T11:57:41;32.23;43.60
58781;SHT30;45243;51.548;6.990;2022-08-03T12:05:02;32.57;44.05
58781;SHT30;45243;51.548;6.990;2022-08-03T12:07:28;32.60;44.40
58781;SHT30;45243;51.548;6.990;2022-08-03T12:10:07;32.44;44.94
58781;SHT30;45243;51.548;6.990;2022-08-03T12:12:34;32.15;44.90
58781;SHT30;45243;51.548;6.990;2022-08-03T12:15:01;31.81;44.18
58781;SHT30;45243;51.548;6.990;2022-08-03T12:17:35;31.34;47.44
58781;SHT30;45243;51.548;6.990;2022-08-03T12:20:03;31.12;48.11
58781;SHT30;45243;51.548;6.990;2022-08-03T12:22:31;31.09;47.72
58781;SHT30;45243;51.548;6.990;2022-08-03T12:24:57;31.15;47.41
58781;SHT30;45243;51.548;6.990;2022-08-03T12:27:23;31.00;49.81
58781;SHT30;45243;51.548;6.990;2022-08-03T12:29:54;30.98;50.31
58781;SHT30;45243;51.548;6.990;2022-08-03T12:32:24;31.00;48.29
58781;SHT30;45243;51.548;6.990;2022-08-03T12:39:54;31.36;47.53
58781;SHT30;45243;51.548;6.990;2022-08-03T12:42:33;31.94;48.18
58781;SHT30;45243;51.548;6.990;2022-08-03T12:45:23;32.26;45.50
58781;SHT30;45243;51.548;6.990;2022-08-03T12:47:59;32.49;45.49
58781;SHT30;45243;51.548;6.990;2022-08-03T12:52:52;32.44;45.06
58781;SHT30;45243;51.548;6.990;2022-08-03T12:55:20;32.67;46.67
58781;SHT30;45243;51.548;6.990;2022-08-03T12:57:46;33.06;44.14
58781;SHT30;45243;51.548;6.990;2022-08-03T13:00:13;32.96;45.07
58781;SHT30;45243;51.548;6.990;2022-08-03T13:02:40;32.81;47.65
58781;SHT30;45243;51.548;6.990;2022-08-03T13:05:14;32.86;43.94
58781;SHT30;45243;51.548;6.990;2022-08-03T13:07:43;33.00;46.61
58781;SHT30;45243;51.548;6.990;2022-08-03T13:15:28;34.01;41.05
58781;SHT30;45243;51.548;6.990;2022-08-03T13:17:54;34.13;41.07
58781;SHT30;45243;51.548;6.990;2022-08-03T13:20:23;34.27;42.04
58781;SHT30;45243;51.548;6.990;2022-08-03T13:22:48;34.36;41.16
58781;SHT30;45243;51.548;6.990;2022-08-03T13:25:21;34.24;42.99
58781;SHT30;45243;51.548;6.990;2022-08-03T13:30:31;34.96;40.20
58781;SHT30;45243;51.548;6.990;2022-08-03T13:32:57;34.72;41.66
58781;SHT30;45243;51.548;6.990;2022-08-03T13:35:24;34.13;40.13
58781;SHT30;45243;51.548;6.990;2022-08-03T13:37:49;33.83;40.48
58781;SHT30;45243;51.548;6.990;2022-08-03T13:40:14;33.24;42.84
58781;SHT30;45243;51.548;6.990;2022-08-03T13:42:40;32.98;42.09
58781;SHT30;45243;51.548;6.990;2022-08-03T13:50:08;32.12;44.32
58781;SHT30;45243;51.548;6.990;2022-08-03T13:52:34;32.05;47.00
58781;SHT30;45243;51.548;6.990;2022-08-03T13:55:04;32.08;46.96
58781;SHT30;45243;51.548;6.990;2022-08-03T13:57:32;32.16;44.84
58781;SHT30;45243;51.548;6.990;2022-08-03T13:59:58;31.81;45.70
58781;SHT30;45243;51.548;6.990;2022-08-03T14:04:51;31.51;47.91
58781;SHT30;45243;51.548;6.990;2022-08-03T14:07:16;31.13;48.35
58781;SHT30;45243;51.548;6.990;2022-08-03T14:09:41;31.05;52.03
58781;SHT30;45243;51.548;6.990;2022-08-03T14:12:07;31.46;45.45
58781;SHT30;45243;51.548;6.990;2022-08-03T14:14:32;31.92;43.84
58781;SHT30;45243;51.548;6.990;2022-08-03T14:16:57;31.70;46.66
58781;SHT30;45243;51.548;6.990;2022-08-03T14:24:18;31.68;48.22
58781;SHT30;45243;51.548;6.990;2022-08-03T14:26:43;31.37;47.67
58781;SHT30;45243;51.548;6.990;2022-08-03T14:29:09;31.15;49.81
58781;SHT30;45243;51.548;6.990;2022-08-03T14:31:35;30.79;48.14
58781;SHT30;45243;51.548;6.990;2022-08-03T14:34:01;30.85;47.33
58781;SHT30;45243;51.548;6.990;2022-08-03T14:38:54;30.75;46.74
58781;SHT30;45243;51.548;6.990;2022-08-03T14:41:19;31.05;45.74
58781;SHT30;45243;51.548;6.990;2022-08-03T14:43:48;31.10;48.58
58781;SHT30;45243;51.548;6.990;2022-08-03T14:46:14;31.23;47.25
58781;SHT30;45243;51.548;6.990;2022-08-03T14:48:39;31.47;46.03
58781;SHT30;45243;51.548;6.990;2022-08-03T14:51:07;31.68;45.90
58781;SHT30;45243;51.548;6.990;2022-08-03T14:58:29;31.36;46.89
58781;SHT30;45243;51.548;6.990;2022-08-03T15:00:55;31.31;45.88
58781;SHT30;45243;51.548;6.990;2022-08-03T15:03:21;31.41;42.82
58781;SHT30;45243;51.548;6.990;2022-08-03T15:05:49;31.60;42.30
58781;SHT30;45243;51.548;6.990;2022-08-03T15:08:17;31.68;44.65
58781;SHT30;45243;51.548;6.990;2022-08-03T15:10:43;31.56;44.42
58781;SHT30;45243;51.548;6.990;2022-08-03T15:13:08;31.47;44.11
58781;SHT30;45243;51.548;6.990;2022-08-03T15:15:34;31.51;44.63
58781;SHT30;45243;51.548;6.990;2022-08-03T15:17:59;31.56;42.03
58781;SHT30;45243;51.548;6.990;2022-08-03T15:20:24;31.46;43.08
58781;SHT30;45243;51.548;6.990;2022-08-03T15:22:50;31.43;42.20
58781;SHT30;45243;51.548;6.990;2022-08-03T15:25:15;31.61;41.64
58781;SHT30;45243;51.548;6.990;2022-08-03T15:27:40;31.56;40.71
58781;SHT30;45243;51.548;6.990;2022-08-03T15:35:08;31.63;41.18
58781;SHT30;45243;51.548;6.990;2022-08-03T15:37:34;31.67;41.14
58781;SHT30;45243;51.548;6.990;2022-08-03T15:40:00;31.61;40.93
58781;SHT30;45243;51.548;6.990;2022-08-03T15:42:29;31.56;41.57
58781;SHT30;45243;51.548;6.990;2022-08-03T15:44:55;31.57;41.27
58781;SHT30;45243;51.548;6.990;2022-08-03T15:47:20;31.47;44.01
58781;SHT30;45243;51.548;6.990;2022-08-03T15:49:46;31.27;44.23
58781;SHT30;45243;51.548;6.990;2022-08-03T15:52:11;31.10;44.96
58781;SHT30;45243;51.548;6.990;2022-08-03T15:54:36;30.89;45.47
58781;SHT30;45243;51.548;6.990;2022-08-03T15:57:02;30.85;44.08
58781;SHT30;45243;51.548;6.990;2022-08-03T15:59:33;30.79;44.76
58781;SHT30;45243;51.548;6.990;2022-08-03T16:01:58;30.40;46.16
58781;SHT30;45243;51.548;6.990;2022-08-03T16:06:51;30.12;45.95
58781;SHT30;45243;51.548;6.990;2022-08-03T16:09:17;29.96;45.76
58781;SHT30;45243;51.548;6.990;2022-08-03T16:11:42;30.04;46.15
58781;SHT30;45243;51.548;6.990;2022-08-03T16:16:35;29.96;45.20
58781;SHT30;45243;51.548;6.990;2022-08-03T16:19:03;30.00;45.72
58781;SHT30;45243;51.548;6.990;2022-08-03T16:21:29;30.17;43.71
58781;SHT30;45243;51.548;6.990;2022-08-03T16:23:54;30.38;43.42
58781;SHT30;45243;51.548;6.990;2022-08-03T16:26:20;30.24;46.74
58781;SHT30;45243;51.548;6.990;2022-08-03T16:28:45;30.10;45.41
58781;SHT30;45243;51.548;6.990;2022-08-03T16:33:38;30.35;44.39
58781;SHT30;45243;51.548;6.990;2022-08-03T16:36:04;30.38;43.86
58781;SHT30;45243;51.548;6.990;2022-08-03T16:38:29;30.44;43.25
58781;SHT30;45243;51.548;6.990;2022-08-03T16:40:55;30.31;44.99
58781;SHT30;45243;51.548;6.990;2022-08-03T16:43:20;30.12;45.74
58781;SHT30;45243;51.548;6.990;2022-08-03T16:45:49;30.00;45.14
58781;SHT30;45243;51.548;6.990;2022-08-03T16:50:45;30.07;45.20
58781;SHT30;45243;51.548;6.990;2022-08-03T16:53:11;30.23;44.61
58781;SHT30;45243;51.548;6.990;2022-08-03T16:55:38;30.14;48.09
58781;SHT30;45243;51.548;6.990;2022-08-03T16:58:04;30.07;46.22
58781;SHT30;45243;51.548;6.990;2022-08-03T17:00:34;30.18;45.94
58781;SHT30;45243;51.548;6.990;2022-08-03T17:05:28;29.96;46.01
58781;SHT30;45243;51.548;6.990;2022-08-03T17:07:53;29.95;44.78
58781;SHT30;45243;51.548;6.990;2022-08-03T17:10:19;29.97;46.48
58781;SHT30;45243;51.548;6.990;2022-08-03T17:12:45;29.68;47.83
58781;SHT30;45243;51.548;6.990;2022-08-03T17:15:10;29.55;48.25
58781;SHT30;45243;51.548;6.990;2022-08-03T17:17:36;29.42;48.72
58781;SHT30;45243;51.548;6.990;2022-08-03T17:25:04;29.10;51.11
58781;SHT30;45243;51.548;6.990;2022-08-03T17:27:31;29.21;47.92
58781;SHT30;45243;51.548;6.990;2022-08-03T17:30:07;29.26;48.32
58781;SHT30;45243;51.548;6.990;2022-08-03T17:32:35;29.14;49.40
58781;SHT30;45243;51.548;6.990;2022-08-03T17:35:02;29.07;51.21
58781;SHT30;45243;51.548;6.990;2022-08-03T17:37:29;28.93;48.87
58781;SHT30;45243;51.548;6.990;2022-08-03T17:39:59;29.01;50.59
58781;SHT30;45243;51.548;6.990;2022-08-03T17:42:25;28.86;50.36
58781;SHT30;45243;51.548;6.990;2022-08-03T17:44:52;28.76;49.01
58781;SHT30;45243;51.548;6.990;2022-08-03T17:47:19;28.94;48.66
58781;SHT30;45243;51.548;6.990;2022-08-03T17:49:45;28.73;54.20
58781;SHT30;45243;51.548;6.990;2022-08-03T17:52:16;28.39;52.72
58781;SHT30;45243;51.548;6.990;2022-08-03T17:59:59;27.86;54.01
58781;SHT30;45243;51.548;6.990;2022-08-03T18:02:51;27.74;54.60
58781;SHT30;45243;51.548;6.990;2022-08-03T18:05:44;27.73;55.43
58781;SHT30;45243;51.548;6.990;2022-08-03T18:08:12;27.55;56.17
58781;SHT30;45243;51.548;6.990;2022-08-03T18:10:42;27.43;56.58
58781;SHT30;45243;51.548;6.990;2022-08-03T18:13:09;27.28;56.63
58781;SHT30;45243;51.548;6.990;2022-08-03T18:20:41;27.08;57.16
58781;SHT30;45243;51.548;6.990;2022-08-03T18:23:08;27.00;57.74
58781;SHT30;45243;51.548;6.990;2022-08-03T18:25:35;26.92;57.99
58781;SHT30;45243;51.548;6.990;2022-08-03T18:28:03;26.87;58.50
58781;SHT30;45243;51.548;6.990;2022-08-03T18:35:25;26.44;61.56
58781;SHT30;45243;51.548;6.990;2022-08-03T18:37:50;26.35;60.79
58781;SHT30;45243;51.548;6.990;2022-08-03T18:40:19;26.28;62.93
58781;SHT30;45243;51.548;6.990;2022-08-03T18:42:47;26.12;62.64
58781;SHT30;45243;51.548;6.990;2022-08-03T18:45:12;26.04;63.81
58781;SHT30;45243;51.548;6.990;2022-08-03T18:52:56;25.64;65.28